Time;durP1;ratioP1;P1;durP2;ratioP2;P2;SDS_P1;SDS_P2;PMS_P1;PMS_P2;Temp;Humidity;BMP_temperature;BMP_pressure;BME280_temperature;BME280_humidity;BME280_pressure;Samples;Min_cycle;Max_cycle;Signal;HPM_P1;HPM_P2
2021/01/27 00:01:09;;;;;;;12.68;6.30;;;;;;;;;;5013931;28;20058;-66
2021/01/27 00:03:35;;;;;;;10.27;6.13;;;;;;;;;;5013848;28;20038;-67
2021/01/27 00:06:02;;;;;;;11.07;6.72;;;;;;;;;;5013301;28;20091;-67
2021/01/27 00:08:28;;;;;;;13.90;6.70;;;;;;;;;;5013877;28;20029;-66
2021/01/27 00:10:54;;;;;;;13.75;6.18;;;;;;;;;;5013942;28;20030;-67
2021/01/27 00:13:21;;;;;;;15.65;6.78;;;;;;;;;;5013722;28;20029;-67
2021/01/27 00:15:48;;;;;;;14.07;6.45;;;7.90;51.60;;;;;;5013830;28;20034;-68
2021/01/27 00:18:14;;;;;;;;;;;8.30;52.30;;;;;;5010619;28;20030;-67
2021/01/27 00:20:41;;;;;;;9.95;5.50;;;;;;;;;;5002614;28;19913;-66
2021/01/27 00:23:08;;;;;;;13.02;6.80;;;;;;;;;;5013416;28;20033;-67
2021/01/27 00:25:35;;;;;;;13.45;6.55;;;7.80;51.50;;;;;;5013480;28;20082;-67
2021/01/27 00:28:02;;;;;;;15.65;6.45;;;7.90;51.60;;;;;;5013550;28;20441;-69
2021/01/27 00:30:32;;;;;;;11.77;6.30;;;8.00;51.50;;;;;;5013530;28;20462;-69
2021/01/27 00:32:59;;;;;;;14.13;6.60;;;8.20;50.90;;;;;;5013495;28;20029;-69
2021/01/27 00:35:31;;;;;;;10.35;6.43;;;8.30;50.20;;;;;;5012418;28;20433;-68
2021/01/27 00:37:59;;;;;;;15.23;6.68;;;8.50;50.00;;;;;;5013560;28;20026;-67
2021/01/27 00:40:26;;;;;;;12.02;6.93;;;;;;;;;;5013249;28;20038;-66
2021/01/27 00:42:52;;;;;;;10.23;6.22;;;;;;;;;;5013332;28;20065;-67
2021/01/27 00:45:19;;;;;;;13.63;6.82;;;;;;;;;;5013116;28;20056;-68
2021/01/27 00:47:46;;;;;;;16.25;6.57;;;8.10;49.90;;;;;;5011778;28;20104;-67
2021/01/27 00:50:14;;;;;;;12.70;6.25;;;;;;;;;;5011043;28;20054;-67
2021/01/27 00:52:41;;;;;;;10.45;5.80;;;;;;;;;;5011888;28;20061;-68
2021/01/27 00:55:16;;;;;;;11.30;5.93;;;8.40;50.10;;;;;;5013163;28;20032;-65
2021/01/27 00:57:43;;;;;;;12.48;6.15;;;;;;;;;;5011745;28;20034;-67
2021/01/27 01:00:18;;;;;;;12.57;5.25;;;8.20;49.90;;;;;;5012896;28;20037;-67
2021/01/27 01:02:44;;;;;;;7.05;4.47;;;;;;;;;;5012862;28;20030;-68
2021/01/27 01:05:13;;;;;;;12.07;5.75;;;;;;;;;;5012122;28;20034;-67
2021/01/27 01:07:42;;;;;;;11.23;5.75;;;7.80;51.60;;;;;;5012587;28;20056;-68
2021/01/27 01:10:09;;;;;;;10.75;5.30;;;;;;;;;;5012348;28;20498;-68
2021/01/27 01:12:35;;;;;;;9.70;5.28;;;;;;;;;;5012740;28;20034;-69
2021/01/27 01:15:02;;;;;;;9.27;5.30;;;;;;;;;;5012021;28;20046;-64
2021/01/27 01:17:28;;;;;;;9.18;5.13;;;;;;;;;;5011825;28;20068;-66
2021/01/27 01:19:54;;;;;;;16.27;5.53;;;;;;;;;;5011562;28;20030;-68
2021/01/27 01:22:21;;;;;;;18.30;7.38;;;;;;;;;;5012690;28;20105;-69
2021/01/27 01:24:47;;;;;;;13.48;5.78;;;;;;;;;;5003771;28;20193;-68
2021/01/27 01:27:14;;;;;;;7.88;4.97;;;;;;;;;;5012182;28;20037;-67
2021/01/27 01:29:40;;;;;;;9.07;4.82;;;;;;;;;;5012318;28;20036;-65
2021/01/27 01:32:06;;;;;;;13.95;5.93;;;;;;;;;;5012027;28;20034;-69
2021/01/27 01:34:33;;;;;;;8.07;5.07;;;;;;;;;;5012022;28;20084;-66
2021/01/27 01:36:59;;;;;;;7.13;4.70;;;;;;;;;;5012428;28;20474;-69
2021/01/27 01:39:25;;;;;;;7.30;4.55;;;;;;;;;;5012358;28;20040;-70
2021/01/27 01:41:51;;;;;;;7.05;4.53;;;;;;;;;;5010414;28;20065;-69
2021/01/27 01:44:18;;;;;;;9.73;5.45;;;;;;;;;;5012121;28;20541;-66
2021/01/27 01:46:44;;;;;;;7.05;4.25;;;;;;;;;;5011907;28;20030;-67
2021/01/27 01:49:12;;;;;;;8.07;4.70;;;7.30;56.00;;;;;;5011481;28;20092;-69
2021/01/27 01:51:43;;;;;;;7.93;4.53;;;7.30;56.00;;;;;;5012109;28;20485;-69
2021/01/27 01:54:27;;;;;;;11.63;5.03;;;6.90;57.10;;;;;;5012290;28;20054;-67
2021/01/27 01:56:59;;;;;;;7.65;4.75;;;7.00;57.00;;;;;;5011919;28;20436;-68
2021/01/27 01:59:28;;;;;;;8.10;4.63;;;7.20;56.60;;;;;;5011728;28;20402;-68
2021/01/27 02:02:04;;;;;;;10.18;4.80;;;7.30;56.00;;;;;;5011863;28;20098;-68
2021/01/27 02:04:48;;;;;;;6.85;4.30;;;6.90;57.00;;;;;;5011879;28;20041;-68
2021/01/27 02:07:14;;;;;;;6.55;4.60;;;;;;;;;;5011697;28;20034;-68
2021/01/27 02:09:41;;;;;;;9.02;5.38;;;;;;;;;;5011822;28;20100;-69
2021/01/27 02:12:31;;;;;;;7.03;4.50;;;6.60;58.90;;;;;;5011675;28;20088;-67
2021/01/27 02:15:24;;;;;;;6.53;4.47;;;6.60;58.60;;;;;;5012067;28;20037;-67
2021/01/27 02:18:02;;;;;;;7.00;5.05;;;6.60;59.30;;;;;;5011245;28;20026;-66
2021/01/27 02:20:33;;;;;;;7.43;4.72;;;6.60;59.30;;;;;;5011781;28;20038;-68
2021/01/27 02:23:20;;;;;;;6.93;4.85;;;6.60;59.60;;;;;;5013605;28;20026;-67
2021/01/27 02:25:47;;;;;;;6.47;4.43;;;;;;;;;;5015482;28;20057;-67
2021/01/27 02:28:34;;;;;;;6.93;4.55;;;6.50;59.50;;;;;;5015952;28;20080;-66
2021/01/27 02:31:16;;;;;;;8.38;4.80;;;6.30;60.20;;;;;;5015102;28;20034;-69
2021/01/27 02:33:50;;;;;;;7.70;4.70;;;6.30;60.60;;;;;;5014216;28;20034;-68
2021/01/27 02:36:30;;;;;;;10.77;4.90;;;6.40;60.20;;;;;;5015396;28;20034;-66
2021/01/27 02:39:14;;;;;;;6.03;4.10;;;6.40;59.90;;;;;;5015561;28;20018;-67
2021/01/27 02:41:50;;;;;;;8.70;5.03;;;6.40;59.70;;;;;;5015611;28;20465;-68
2021/01/27 02:44:20;;;;;;;8.75;4.82;;;6.20;60.70;;;;;;5015518;28;20116;-67
2021/01/27 02:46:53;;;;;;;5.40;4.20;;;6.20;61.00;;;;;;5014710;28;20030;-69
2021/01/27 02:49:24;;;;;;;8.48;4.63;;;6.50;60.00;;;;;;5015211;28;20490;-69
2021/01/27 02:51:50;;;;;;;7.97;4.75;;;;;;;;;;5015104;28;20030;-68
2021/01/27 02:54:33;;;;;;;4.28;3.85;;;6.30;59.70;;;;;;5015581;28;20113;-67
2021/01/27 02:57:14;;;;;;;6.10;4.53;;;6.30;60.40;;;;;;5015314;28;20044;-69
2021/01/27 02:59:50;;;;;;;5.30;4.00;;;6.20;60.40;;;;;;5015046;28;20084;-68
2021/01/27 03:02:38;;;;;;;7.15;4.78;;;6.00;61.40;;;;;;5014684;28;20061;-67
2021/01/27 03:05:39;;;;;;;7.10;4.82;;;6.20;61.00;;;;;;5014596;28;20048;-67
2021/01/27 03:08:16;;;;;;;5.55;4.35;;;6.40;60.50;;;;;;5014991;28;20030;-69
2021/01/27 03:11:15;;;;;;;8.05;4.40;;;6.10;61.40;;;;;;5014721;28;20030;-67
2021/01/27 03:13:44;;;;;;;10.00;5.00;;;6.20;61.20;;;;;;5013666;28;20042;-69
2021/01/27 03:16:14;;;;;;;10.52;5.28;;;6.10;61.40;;;;;;5014435;28;20026;-67
2021/01/27 03:18:44;;;;;;;8.88;4.65;;;6.30;61.00;;;;;;5014445;28;20038;-67
2021/01/27 03:21:15;;;;;;;11.35;5.00;;;6.30;60.80;;;;;;5014619;28;20030;-68
2021/01/27 03:23:52;;;;;;;8.38;4.80;;;6.40;60.90;;;;;;5014343;28;20037;-69
2021/01/27 03:26:48;;;;;;;8.38;4.45;;;6.10;61.80;;;;;;5014740;28;20037;-69
2021/01/27 03:29:14;;;;;;;6.80;4.50;;;;;;;;;;5014049;28;20468;-70
2021/01/27 03:31:40;;;;;;;7.95;4.45;;;;;;;;;;5014454;28;20160;-67
2021/01/27 03:34:23;;;;;;;8.40;4.60;;;6.10;61.80;;;;;;5014061;28;20038;-67
2021/01/27 03:37:18;;;;;;;6.80;4.40;;;6.00;62.20;;;;;;5014468;28;20021;-68
2021/01/27 03:39:48;;;;;;;10.07;5.57;;;6.40;61.60;;;;;;5014297;28;20041;-68
2021/01/27 03:42:27;;;;;;;6.78;4.57;;;6.40;61.00;;;;;;5014199;28;20026;-70
2021/01/27 03:44:59;;;;;;;6.95;4.28;;;6.10;61.40;;;;;;5013473;28;20473;-68
2021/01/27 03:48:08;;;;;;;8.15;4.57;;;6.00;62.40;;;;;;5014258;28;20398;-67
2021/01/27 03:50:36;;;;;;;6.30;4.10;;;6.20;62.10;;;;;;5002018;28;20041;-69
2021/01/27 03:53:16;;;;;;;10.80;4.72;;;6.20;62.10;;;;;;5014086;28;20030;-66
2021/01/27 03:56:03;;;;;;;6.47;4.40;;;6.30;61.80;;;;;;5014284;28;20041;-69
2021/01/27 03:58:37;;;;;;;10.18;4.57;;;6.10;62.80;;;;;;5013509;28;20061;-68
2021/01/27 04:01:10;;;;;;;6.93;4.90;;;6.30;62.40;;;;;;5012718;28;20040;-67
2021/01/27 04:03:37;;;;;;;6.63;5.22;;;;;;;;;;5011109;28;20033;-67
2021/01/27 04:06:03;;;;;;;7.25;4.40;;;;;;;;;;5002459;28;20109;-67
2021/01/27 04:08:30;;;;;;;7.80;4.35;;;;;;;;;;5013974;28;20022;-70
2021/01/27 04:10:56;;;;;;;7.13;4.68;;;;;;;;;;5013837;28;20366;-67
2021/01/27 04:13:23;;;;;;;8.18;4.47;;;;;;;;;;5013136;28;20026;-69
2021/01/27 04:15:49;;;;;;;8.00;4.90;;;;;;;;;;5013466;28;20453;-67
2021/01/27 04:18:15;;;;;;;5.70;3.72;;;;;;;;;;5013741;28;20037;-68
2021/01/27 04:20:42;;;;;;;10.75;4.40;;;;;;;;;;5011983;28;20092;-68
2021/01/27 04:23:08;;;;;;;7.97;4.78;;;;;;;;;;5013731;28;20049;-68
2021/01/27 04:25:34;;;;;;;11.65;4.70;;;;;;;;;;5013278;28;20068;-68
2021/01/27 04:28:00;;;;;;;8.10;4.75;;;;;;;;;;5013225;28;20037;-66
2021/01/27 04:30:30;;;;;;;7.90;4.38;;;6.40;63.00;;;;;;5013444;28;20103;-68
2021/01/27 04:32:57;;;;;;;7.13;3.95;;;6.30;63.00;;;;;;5013258;28;20037;-68
2021/01/27 04:35:24;;;;;;;7.25;4.70;;;;;;;;;;5013133;28;20029;-68
2021/01/27 04:37:50;;;;;;;9.77;5.10;;;;;;;;;;5013279;28;20058;-68
2021/01/27 04:40:26;;;;;;;7.90;4.85;;;6.10;64.60;;;;;;5013411;28;20038;-69
2021/01/27 04:42:53;;;;;;;7.35;4.75;;;;;;;;;;5012476;28;20033;-68
2021/01/27 04:45:20;;;;;;;12.27;5.10;;;6.20;64.30;;;;;;5012280;28;20041;-65
2021/01/27 04:48:06;;;;;;;6.47;4.70;;;6.30;63.80;;;;;;5013251;28;20033;-67
2021/01/27 04:50:48;;;;;;;10.40;5.70;;;6.30;64.00;;;;;;5000909;28;20057;-67
2021/01/27 04:53:23;;;;;;;10.07;5.15;;;6.50;63.90;;;;;;5012829;28;20037;-70
2021/01/27 04:56:13;;;;;;;7.82;5.20;;;6.20;64.20;;;;;;5012586;28;20406;-67
2021/01/27 04:59:07;;;;;;;9.98;5.00;;;6.30;64.20;;;;;;5011521;28;20433;-67
2021/01/27 05:02:11;;;;;;;5.18;4.20;;;6.30;63.90;;;;;;4971362;28;20058;-67
2021/01/27 05:05:25;;;;;;;8.30;4.90;;;6.00;65.00;;;;;;4914107;29;20036;-68
2021/01/27 05:08:29;;;;;;;8.38;5.28;;;6.10;65.60;;;;;;4839598;29;20094;-67
2021/01/27 05:11:00;;;;;;;8.10;5.20;;;5.90;66.10;;;;;;4802558;29;20047;-67
2021/01/27 05:13:26;;;;;;;8.90;5.05;;;;;;;;;;4803198;29;20138;-67
2021/01/27 05:15:56;;;;;;;11.63;5.35;;;5.90;66.40;;;;;;4803044;29;20066;-68
2021/01/27 05:18:22;;;;;;;7.78;5.20;;;;;;;;;;4802854;29;20519;-66
2021/01/27 05:20:49;;;;;;;7.95;5.30;;;5.70;67.40;;;;;;4802661;29;20087;-67
2021/01/27 05:23:16;;;;;;;9.55;5.60;;;;;;;;;;4802892;29;20043;-70
2021/01/27 05:26:05;;;;;;;10.32;5.10;;;5.80;66.90;;;;;;4801746;29;20556;-69
2021/01/27 05:28:39;;;;;;;10.95;5.53;;;5.80;67.20;;;;;;4803018;29;20051;-65
2021/01/27 05:31:05;;;;;;;11.82;5.43;;;;;;;;;;4802457;29;20039;-68
2021/01/27 05:33:51;;;;;;;10.05;5.28;;;6.10;65.90;;;;;;4802880;29;20038;-69
2021/01/27 05:36:25;;;;;;;8.68;5.30;;;6.00;66.40;;;;;;4832050;29;20045;-68
2021/01/27 05:39:13;;;;;;;7.90;5.43;;;6.20;65.70;;;;;;4895978;29;20616;-66
2021/01/27 05:41:40;;;;;;;9.10;5.60;;;;;;;;;;4924396;29;20626;-68
2021/01/27 05:44:10;;;;;;;8.52;5.40;;;6.50;64.40;;;;;;4939575;28;20050;-68
2021/01/27 05:46:37;;;;;;;6.88;5.07;;;6.50;64.50;;;;;;4982180;28;20105;-68
2021/01/27 05:49:09;;;;;;;12.60;6.07;;;6.10;65.80;;;;;;4982374;28;20038;-69
2021/01/27 05:51:38;;;;;;;9.63;6.03;;;6.30;65.90;;;;;;4981027;28;20058;-69
2021/01/27 05:54:23;;;;;;;11.02;5.28;;;6.30;65.70;;;;;;4982644;28;20062;-69
2021/01/27 05:56:51;;;;;;;7.88;5.20;;;6.20;66.40;;;;;;4986864;28;20053;-68
2021/01/27 05:59:25;;;;;;;9.20;5.47;;;6.20;66.40;;;;;;4982135;28;20038;-68
2021/01/27 06:01:59;;;;;;;7.68;5.28;;;6.30;66.40;;;;;;4981420;28;20063;-68
2021/01/27 06:04:27;;;;;;;9.52;5.53;;;6.50;65.80;;;;;;4981767;28;20102;-66
2021/01/27 06:06:54;;;;;;;9.43;6.35;;;;;;;;;;4980621;28;20050;-68
2021/01/27 06:09:40;;;;;;;8.57;5.85;;;6.50;65.80;;;;;;4988191;28;20033;-70
2021/01/27 06:12:24;;;;;;;10.55;5.97;;;6.60;65.40;;;;;;4964604;28;20026;-68
2021/01/27 06:15:02;;;;;;;11.32;5.95;;;6.70;65.10;;;;;;4980251;28;20085;-68
2021/01/27 06:17:39;;;;;;;8.65;5.75;;;6.70;65.10;;;;;;4984087;28;20085;-67
2021/01/27 06:20:14;;;;;;;9.18;6.18;;;6.80;65.00;;;;;;4294871;28;10000681;-70
2021/01/27 06:23:02;;;;;;;11.27;6.28;;;6.80;65.50;;;;;;4976220;28;20490;-71
2021/01/27 06:25:49;;;;;;;8.70;6.30;;;6.70;65.30;;;;;;4993363;28;20050;-69
2021/01/27 06:28:43;;;;;;;9.90;6.10;;;6.80;65.50;;;;;;4998734;28;20042;-70
2021/01/27 06:31:27;;;;;;;12.45;6.35;;;6.50;66.20;;;;;;5001393;28;20034;-68
2021/01/27 06:34:44;;;;;;;10.65;6.10;;;6.70;65.80;;;;;;5003762;28;20390;-69
2021/01/27 06:37:36;;;;;;;11.85;6.78;;;6.70;65.80;;;;;;4967397;28;20054;-69
2021/01/27 06:40:29;;;;;;;23.65;7.10;;;6.70;65.80;;;;;;4967907;28;20203;-68
2021/01/27 06:43:02;;;;;;;9.32;6.13;;;6.60;65.70;;;;;;4967000;28;20047;-67
2021/01/27 06:46:01;;;;;;;9.43;5.70;;;6.50;66.50;;;;;;4967773;28;20042;-68
2021/01/27 06:48:42;;;;;;;11.35;6.82;;;6.60;66.70;;;;;;4967618;28;20633;-71
2021/01/27 06:51:48;;;;;;;10.65;7.25;;;6.70;66.30;;;;;;4967442;28;20035;-70
2021/01/27 06:54:32;;;;;;;12.10;6.68;;;6.90;65.60;;;;;;4967038;28;20407;-70
2021/01/27 06:57:28;;;;;;;10.82;6.22;;;6.90;65.60;;;;;;4967523;28;20467;-71
2021/01/27 07:00:17;;;;;;;11.85;6.97;;;7.20;64.90;;;;;;4967319;28;20042;-71
2021/01/27 07:03:01;;;;;;;10.10;7.00;;;6.90;65.60;;;;;;4967467;28;20134;-70
2021/01/27 07:05:27;;;;;;;12.82;6.75;;;;;;;;;;4967057;28;20043;-70
2021/01/27 07:08:31;;;;;;;7.65;5.95;;;6.90;65.70;;;;;;4966632;28;20042;-71
2021/01/27 07:11:11;;;;;;;9.48;6.30;;;6.80;66.40;;;;;;4949255;28;20086;-71
2021/01/27 07:14:05;;;;;;;9.95;6.18;;;6.90;66.00;;;;;;5005941;28;20038;-71
2021/01/27 07:16:46;;;;;;;10.35;6.22;;;6.80;66.60;;;;;;5011270;28;20069;-69
2021/01/27 07:19:36;;;;;;;11.23;6.60;;;7.00;65.70;;;;;;5015120;28;20133;-69
2021/01/27 07:22:21;;;;;;;9.98;6.63;;;7.00;65.80;;;;;;5011892;28;20057;-71
2021/01/27 07:25:09;;;;;;;11.82;6.57;;;7.00;65.70;;;;;;5011840;28;20092;-71
2021/01/27 07:27:40;;;;;;;8.95;6.50;;;;;;;;;;5012330;28;20045;-70
2021/01/27 07:30:16;;;;;;;9.30;6.72;;;7.10;65.70;;;;;;5012018;28;20048;-71
2021/01/27 07:32:50;;;;;;;9.48;6.15;;;;;;;;;;5011875;28;20038;-70
2021/01/27 07:35:37;;;;;;;9.88;6.63;;;7.20;65.70;;;;;;5011509;28;20084;-72
2021/01/27 07:38:20;;;;;;;11.13;6.95;;;7.20;65.50;;;;;;5011850;28;20034;-70
2021/01/27 07:41:01;;;;;;;11.25;6.65;;;7.10;65.80;;;;;;5011981;28;20018;-71
2021/01/27 07:43:49;;;;;;;10.48;6.63;;;6.80;67.00;;;;;;5011459;28;20041;-74
2021/01/27 07:46:18;;;;;;;8.63;5.95;;;6.60;67.30;;;;;;5010481;28;20112;-73
2021/01/27 07:48:52;;;;;;;10.98;6.30;;;6.60;68.20;;;;;;5011660;28;20057;-71
2021/01/27 07:51:24;;;;;;;8.55;6.10;;;6.50;68.30;;;;;;5011157;28;20505;-73
2021/01/27 07:54:01;;;;;;;9.10;6.10;;;6.50;68.60;;;;;;5011828;28;20033;-72
2021/01/27 07:56:50;;;;;;;10.48;6.60;;;6.70;68.30;;;;;;5011464;28;20104;-72
2021/01/27 07:59:16;;;;;;;7.95;5.93;;;;;;;;;;5011642;28;20030;-73
2021/01/27 08:01:46;;;;;;;9.50;6.30;;;7.00;67.00;;;;;;5011318;28;20458;-70
2021/01/27 08:04:50;;;;;;;10.98;6.60;;;7.00;66.60;;;;;;5011063;28;20544;-73
2021/01/27 08:07:30;;;;;;;8.48;5.97;;;7.10;66.70;;;;;;4969089;28;20598;-72
2021/01/27 08:10:14;;;;;;;10.23;6.00;;;6.70;67.70;;;;;;4969977;28;20469;-72
2021/01/27 08:12:44;;;;;;;7.72;5.65;;;6.70;68.30;;;;;;4969636;28;20094;-71
2021/01/27 08:15:34;;;;;;;8.20;5.57;;;6.60;68.50;;;;;;4985418;28;20034;-72
2021/01/27 08:18:13;;;;;;;7.95;5.78;;;6.80;68.30;;;;;;4952892;28;20466;-70
2021/01/27 08:20:42;;;;;;;8.77;6.10;;;6.90;67.80;;;;;;4965205;28;20066;-72
2021/01/27 08:23:33;;;;;;;8.13;5.63;;;7.10;67.20;;;;;;4969595;28;20154;-72
2021/01/27 08:26:01;;;;;;;8.73;6.00;;;;;;;;;;4966024;28;20621;-71
2021/01/27 08:28:33;;;;;;;8.23;5.47;;;7.10;66.50;;;;;;4970131;28;20067;-71
2021/01/27 08:31:08;;;;;;;8.05;5.93;;;7.20;66.80;;;;;;4972378;28;20046;-70
2021/01/27 08:33:46;;;;;;;8.25;5.75;;;7.10;66.40;;;;;;4971063;28;20070;-70
2021/01/27 08:36:28;;;;;;;7.57;5.60;;;7.40;65.80;;;;;;4974933;28;20039;-70
2021/01/27 08:39:06;;;;;;;9.43;6.30;;;7.10;66.60;;;;;;4971420;28;20038;-70
2021/01/27 08:41:41;;;;;;;7.07;5.38;;;7.20;66.40;;;;;;4945816;28;20027;-71
2021/01/27 08:44:13;;;;;;;8.43;6.18;;;7.30;66.30;;;;;;4995150;28;20046;-70
2021/01/27 08:46:44;;;;;;;9.40;5.68;;;7.40;65.90;;;;;;5007433;28;20025;-69
2021/01/27 08:49:31;;;;;;;9.82;5.95;;;7.30;66.20;;;;;;5007768;28;20038;-70
2021/01/27 08:51:58;;;;;;;8.10;5.50;;;;;;;;;;5005006;28;20088;-70
2021/01/27 08:54:26;;;;;;;9.50;6.65;;;7.40;66.10;;;;;;5007629;28;20034;-69
2021/01/27 08:57:17;;;;;;;9.27;6.10;;;7.60;65.50;;;;;;5002669;28;20041;-69
2021/01/27 09:00:02;;;;;;;9.40;6.00;;;7.90;65.10;;;;;;4995963;28;20034;-68
2021/01/27 09:02:51;;;;;;;8.13;5.70;;;7.90;64.50;;;;;;5005985;28;20041;-69
2021/01/27 09:05:23;;;;;;;11.20;6.00;;;7.60;65.30;;;;;;5008857;28;20046;-72
2021/01/27 09:07:53;;;;;;;8.65;5.85;;;7.50;65.70;;;;;;5000258;28;20084;-70
2021/01/27 09:10:26;;;;;;;10.48;5.68;;;7.40;66.20;;;;;;5001456;28;20081;-70
2021/01/27 09:12:52;;;;;;;8.85;6.28;;;;;;;;;;4997343;28;20023;-69
2021/01/27 09:15:31;;;;;;;7.93;5.97;;;7.30;66.80;;;;;;4997843;28;20027;-70
2021/01/27 09:17:59;;;;;;;9.35;6.10;;;7.30;66.50;;;;;;4996846;28;20054;-69
2021/01/27 09:20:31;;;;;;;9.73;6.70;;;7.70;66.30;;;;;;4997197;28;20494;-69
2021/01/27 09:23:04;;;;;;;10.02;6.57;;;7.70;65.50;;;;;;4997552;28;20028;-69
2021/01/27 09:25:32;;;;;;;9.95;6.55;;;7.90;65.30;;;;;;4997287;28;20053;-70
2021/01/27 09:28:03;;;;;;;9.27;6.38;;;7.90;65.30;;;;;;4998975;28;20018;-69
2021/01/27 09:30:29;;;;;;;10.63;6.40;;;;;;;;;;4996219;28;20034;-71
2021/01/27 09:33:34;;;;;;;10.68;6.93;;;7.80;66.10;;;;;;5001059;28;20034;-71
2021/01/27 09:36:22;;;;;;;10.15;6.82;;;7.80;66.20;;;;;;4970375;28;20038;-70
2021/01/27 09:38:52;;;;;;;10.77;7.20;;;7.80;66.20;;;;;;4970610;28;20062;-72
2021/01/27 09:41:36;;;;;;;11.18;7.68;;;7.90;66.10;;;;;;4969880;28;20042;-71
2021/01/27 09:44:03;;;;;;;10.07;6.88;;;7.50;65.50;;;;;;4970203;28;20038;-71
2021/01/27 09:46:36;;;;;;;11.43;6.95;;;8.00;65.50;;;;;;4970123;28;20138;-70
2021/01/27 09:49:09;;;;;;;13.10;8.00;;;7.90;65.80;;;;;;4970271;28;20063;-72
2021/01/27 09:51:37;;;;;;;14.43;7.90;;;8.00;65.70;;;;;;4969738;28;20058;-73
2021/01/27 09:54:04;;;;;;;11.90;8.13;;;8.10;65.70;;;;;;4970297;28;20030;-72
2021/01/27 09:56:31;;;;;;;12.02;8.20;;;;;;;;;;4969971;28;20051;-71
2021/01/27 09:58:59;;;;;;;12.60;7.88;;;8.10;66.10;;;;;;4986139;28;20059;-69
2021/01/27 10:01:27;;;;;;;14.75;8.32;;;8.00;66.60;;;;;;4969372;28;20123;-71
2021/01/27 10:04:07;;;;;;;14.35;8.18;;;7.90;66.70;;;;;;4970062;28;20051;-72
2021/01/27 10:06:36;;;;;;;11.77;7.90;;;8.00;66.50;;;;;;4969925;28;20130;-73
2021/01/27 10:09:25;;;;;;;16.48;8.43;;;8.20;66.00;;;;;;4972950;28;20046;-71
2021/01/27 10:12:04;;;;;;;12.30;8.23;;;8.20;65.80;;;;;;5006077;28;20034;-71
2021/01/27 10:14:37;;;;;;;12.25;7.85;;;8.20;65.80;;;;;;5011416;28;20030;-71
2021/01/27 10:17:09;;;;;;;13.82;9.00;;;8.30;65.70;;;;;;5010819;28;20038;-71
2021/01/27 10:19:44;;;;;;;15.60;9.70;;;8.40;65.50;;;;;;5011239;28;20045;-72
2021/01/27 10:22:11;;;;;;;15.40;9.18;;;;;;;;;;5010919;28;20037;-72
2021/01/27 10:24:41;;;;;;;16.50;9.13;;;8.20;66.00;;;;;;5011117;28;20490;-71
2021/01/27 10:27:08;;;;;;;14.15;9.13;;;;;;;;;;5010942;28;20044;-72
2021/01/27 10:29:38;;;;;;;17.50;10.15;;;8.30;66.00;;;;;;5010702;28;20117;-71
2021/01/27 10:32:35;;;;;;;14.13;9.30;;;8.40;66.10;;;;;;5009820;28;20041;-72
2021/01/27 10:35:23;;;;;;;15.90;10.18;;;8.50;65.90;;;;;;5011136;28;20042;-72
2021/01/27 10:38:01;;;;;;;17.15;10.20;;;8.50;65.80;;;;;;5010700;28;20033;-71
2021/01/27 10:40:29;;;;;;;18.52;10.63;;;8.60;65.60;;;;;;5011246;28;20913;-71
2021/01/27 10:42:58;;;;;;;20.60;11.27;;;8.60;65.70;;;;;;5011466;28;20029;-70
2021/01/27 10:45:36;;;;;;;20.20;11.43;;;8.50;66.10;;;;;;5014820;28;20030;-73
2021/01/27 10:48:27;;;;;;;18.35;11.48;;;8.30;66.70;;;;;;5014667;28;20030;-74
2021/01/27 10:51:05;;;;;;;19.23;11.45;;;8.30;66.90;;;;;;5005954;28;20061;-73
2021/01/27 10:53:40;;;;;;;19.95;11.75;;;8.20;67.30;;;;;;5046395;28;20423;-72
2021/01/27 10:56:06;;;;;;;24.38;12.20;;;;;;;;;;5014317;28;20394;-74
2021/01/27 10:58:33;;;;;;;18.55;11.80;;;;;;;;;;5013376;28;20061;-73
2021/01/27 11:00:59;;;;;;;18.42;11.98;;;;;;;;;;5014495;28;20045;-73
2021/01/27 11:03:26;;;;;;;22.75;12.60;;;;;;;;;;5014540;28;20168;-71
2021/01/27 11:05:52;;;;;;;23.00;12.93;;;;;;;;;;5014655;28;20536;-73
2021/01/27 11:08:30;;;;;;;21.25;12.90;;;8.70;66.40;;;;;;5013490;28;20543;-72
2021/01/27 11:10:58;;;;;;;24.17;12.95;;;8.80;66.10;;;;;;5000829;28;20073;-72
2021/01/27 11:13:24;;;;;;;22.40;13.90;;;;;;;;;;5013948;28;20030;-70
2021/01/27 11:15:55;;;;;;;27.17;14.85;;;;;;;;;;5014318;28;20512;-69
2021/01/27 11:18:25;;;;;;;24.35;13.25;;;;;;;;;;5013050;28;20049;-72
2021/01/27 11:20:51;;;;;;;27.98;16.75;;;;;;;;;;5013987;28;20068;-72
2021/01/27 11:23:17;;;;;;;32.03;15.80;;;;;;;;;;5014439;28;20495;-71
2021/01/27 11:25:44;;;;;;;25.92;15.48;;;;;;;;;;5013399;28;20057;-71
2021/01/27 11:28:10;;;;;;;25.83;15.30;;;;;;;;;;5013645;28;20038;-72
2021/01/27 11:30:36;;;;;;;26.63;16.08;;;;;;;;;;4311688;28;10000697;-73
2021/01/27 11:33:03;;;;;;;27.98;15.52;;;;;;;;;;5012069;28;20115;-69
2021/01/27 11:35:29;;;;;;;25.75;14.80;;;;;;;;;;5011799;28;20038;-70
2021/01/27 11:37:57;;;;;;;27.00;15.80;;;;;;;;;;5011574;28;20505;-71
2021/01/27 11:40:25;;;;;;;28.67;15.77;;;8.90;66.80;;;;;;5011487;28;20042;-72
2021/01/27 11:42:52;;;;;;;33.88;16.35;;;;;;;;;;5008721;28;20041;-70
2021/01/27 11:45:19;;;;;;;30.90;17.33;;;9.10;66.60;;;;;;5010645;28;20050;-72
2021/01/27 11:47:45;;;;;;;29.40;17.05;;;;;;;;;;5010038;28;20048;-71
2021/01/27 11:50:13;;;;;;;27.58;16.05;;;9.20;66.70;;;;;;5008207;28;20057;-71
2021/01/27 11:52:39;;;;;;;29.63;15.98;;;;;;;;;;5001931;28;20064;-71
2021/01/27 11:55:06;;;;;;;30.30;17.45;;;9.10;67.10;;;;;;4997733;28;20038;-72
2021/01/27 11:57:32;;;;;;;;;;;9.20;66.90;;;;;;5005893;28;20479;-71
2021/01/27 11:59:58;;;;;;;28.00;15.05;;;;;;;;;;5032780;28;19913;-71
2021/01/27 12:02:25;;;;;;;29.55;16.25;;;;;;;;;;5008636;28;20453;-71
2021/01/27 12:04:51;;;;;;;27.92;15.68;;;;;;;;;;4999858;28;20066;-71
2021/01/27 12:07:17;;;;;;;30.10;17.35;;;;;;;;;;5003947;28;20026;-72
2021/01/27 12:09:44;;;;;;;30.00;17.65;;;9.10;67.20;;;;;;5001982;28;20018;-72
2021/01/27 12:12:10;;;;;;;;;;;9.10;67.30;;;;;;5002538;28;20536;-71
2021/01/27 12:14:36;;;;;;;30.92;17.58;;;;;;;;;;5003345;28;19919;-71
2021/01/27 12:17:03;;;;;;;32.45;17.10;;;9.40;67.00;;;;;;5000886;28;20089;-71
2021/01/27 12:19:29;;;;;;;32.17;17.80;;;;;;;;;;5003351;28;20037;-72
2021/01/27 12:21:56;;;;;;;32.70;17.58;;;9.80;66.10;;;;;;4999205;28;20034;-73
2021/01/27 12:24:24;;;;;;;30.48;16.98;;;;;;;;;;4995455;28;20057;-71
2021/01/27 12:26:50;;;;;;;36.65;18.60;;;;;;;;;;5000361;28;20053;-73
2021/01/27 12:29:17;;;;;;;31.88;17.83;;;;;;;;;;5002439;28;20725;-77
2021/01/27 12:31:43;;;;;;;34.92;18.38;;;;;;;;;;5004738;28;20041;-72
2021/01/27 12:34:11;;;;;;;35.88;18.65;;;10.30;64.60;;;;;;5006024;28;20124;-72
2021/01/27 12:36:37;;;;;;;34.85;18.77;;;;;;;;;;5010189;28;20513;-71
2021/01/27 12:39:04;;;;;;;35.90;16.92;;;10.20;64.50;;;;;;5009429;28;20030;-73
2021/01/27 12:41:30;;;;;;;32.00;18.08;;;;;;;;;;5009764;28;20037;-71
2021/01/27 12:43:57;;;;;;;33.08;18.23;;;;;;;;;;5010229;28;20088;-71
2021/01/27 12:46:23;;;;;;;33.22;18.63;;;;;;;;;;5010436;28;20117;-73
2021/01/27 12:48:50;;;;;;;;;;;10.40;64.80;;;;;;5010947;28;20060;-70
2021/01/27 12:51:16;;;;;;;39.33;18.75;;;;;;;;;;5010150;28;19914;-70
2021/01/27 12:53:44;;;;;;;44.13;20.15;;;10.40;64.50;;;;;;5009780;28;20505;-70
2021/01/27 12:56:10;;;;;;;33.88;19.42;;;;;;;;;;5007903;28;20041;-73
2021/01/27 12:58:36;;;;;;;38.40;19.42;;;;;;;;;;5009755;28;20030;-72
2021/01/27 13:01:03;;;;;;;37.67;20.08;;;;;;;;;;5010146;28;20650;-72
2021/01/27 13:03:29;;;;;;;35.65;19.67;;;;;;;;;;5009936;28;20466;-71
2021/01/27 13:05:55;;;;;;;39.17;19.77;;;;;;;;;;5009008;28;20451;-71
2021/01/27 13:08:22;;;;;;;36.90;18.02;;;;;;;;;;5007712;28;20033;-70
2021/01/27 13:10:48;;;;;;;38.08;19.98;;;;;;;;;;5009559;28;20116;-72
2021/01/27 13:13:15;;;;;;;37.03;17.98;;;10.10;65.90;;;;;;5009615;28;20034;-71
2021/01/27 13:15:41;;;;;;;42.25;20.73;;;;;;;;;;5009531;28;20062;-71
2021/01/27 13:18:08;;;;;;;41.97;20.23;;;10.20;65.70;;;;;;5008756;28;20084;-71
2021/01/27 13:20:34;;;;;;;40.65;19.23;;;;;;;;;;5009369;28;20160;-71
2021/01/27 13:23:01;;;;;;;36.88;19.10;;;10.10;66.40;;;;;;5008267;28;20030;-72
2021/01/27 13:25:28;;;;;;;44.17;20.77;;;;;;;;;;5008937;28;20078;-70
2021/01/27 13:27:54;;;;;;;38.72;19.60;;;;;;;;;;5009551;28;20129;-72
2021/01/27 13:30:22;;;;;;;43.15;20.73;;;10.30;66.00;;;;;;5016468;28;20037;-72
2021/01/27 13:32:48;;;;;;;44.42;21.92;;;10.30;65.80;;;;;;5009790;28;20048;-73
2021/01/27 13:35:18;;;;;;;37.00;19.10;;;10.30;66.00;;;;;;5009720;28;20030;-73
2021/01/27 13:37:44;;;;;;;41.55;20.55;;;;;;;;;;5009507;28;20030;-71
2021/01/27 13:40:11;;;;;;;39.72;20.02;;;10.20;66.20;;;;;;4995526;28;20112;-72
2021/01/27 13:42:37;;;;;;;36.20;18.23;;;;;;;;;;5009147;28;20034;-72
2021/01/27 13:45:07;;;;;;;41.60;20.58;;;10.30;66.10;;;;;;5009093;28;20478;-71
2021/01/27 13:47:35;;;;;;;41.35;20.05;;;10.40;66.00;;;;;;5009646;28;20478;-72
2021/01/27 13:50:01;;;;;;;40.40;19.05;;;;;;;;;;5008859;28;20034;-72
2021/01/27 13:52:28;;;;;;;36.45;18.73;;;;;;;;;;5009171;28;20103;-71
2021/01/27 13:54:54;;;;;;;42.47;21.05;;;;;;;;;;5009093;28;20794;-71
2021/01/27 13:57:20;;;;;;;41.03;20.17;;;;;;;;;;5008827;28;20060;-72
2021/01/27 13:59:46;;;;;;;41.90;20.88;;;;;;;;;;5009262;28;20120;-72